Forney's Hourly Summary for Friday, May 11, 2018
Hour Temp
(f)
RH
(%)
Solar Rad.
(MJ/m2)
Rainfall
(in)
Wind
(mph)
5/11/2018 12:00 AM 72 64 0 0 1.55
5/11/2018 1:00 AM 72 64 0 0 4.47
5/11/2018 2:00 AM 72 66 0 0 5.54
5/11/2018 3:00 AM 71 69 0 0 6.48
5/11/2018 4:00 AM 69 72 0 0 6.19
5/11/2018 5:00 AM 68 77 0 0 5.54
5/11/2018 6:00 AM 68 82 0 0 6.66
5/11/2018 7:00 AM 69 83 0.02 0 5.97
5/11/2018 8:00 AM 69 82 0.26 0 6.31
5/11/2018 9:00 AM 71 75 0.96 0 7.37
5/11/2018 10:00 AM 74 65 1.99 0 7.82
5/11/2018 11:00 AM 77 61 2.08 0 9.31
5/11/2018 12:00 PM 79 52 2.29 0 8.94
5/11/2018 1:00 PM 82 50 2.92 0 8.88
5/11/2018 2:00 PM 83 46 2.94 0 8.92
5/11/2018 3:00 PM 85 44 2.91 0 8.23
5/11/2018 4:00 PM 86 43 2.39 0 8.13
5/11/2018 5:00 PM 85 43 1.62 0 8.08
5/11/2018 6:00 PM 85 43 1.28 0 7.33
5/11/2018 7:00 PM 84 44 0.71 0 7.22
5/11/2018 8:00 PM 83 45 0.12 0 5.44
5/11/2018 9:00 PM 79 49 0.01 0 1.46
5/11/2018 10:00 PM 76 58 0 0 1.26
5/11/2018 11:00 PM 75 60 0 0 2.06
Data Summary 76 59 22.50 0.00 6.22